sensor_id;sensor_type;location;lat;lon;timestamp;pressure;altitude;pressure_sealevel;temperature;humidity
53041;BME280;39326;42.650;23.248;2023-08-12T00:01:25;93168.31;;;15.33;73.23
53041;BME280;39326;42.650;23.248;2023-08-12T00:03:51;93165.28;;;15.31;73.10
53041;BME280;39326;42.650;23.248;2023-08-12T00:06:17;93167.97;;;15.28;73.34
53041;BME280;39326;42.650;23.248;2023-08-12T00:08:43;93165.34;;;15.24;73.43
53041;BME280;39326;42.650;23.248;2023-08-12T00:11:09;93162.25;;;15.26;73.09
53041;BME280;39326;42.650;23.248;2023-08-12T00:13:34;93170.34;;;15.22;73.24
53041;BME280;39326;42.650;23.248;2023-08-12T00:16:00;93163.06;;;15.19;73.54
53041;BME280;39326;42.650;23.248;2023-08-12T00:18:26;93161.91;;;15.20;73.24
53041;BME280;39326;42.650;23.248;2023-08-12T00:20:53;93160.75;;;15.21;73.80
53041;BME280;39326;42.650;23.248;2023-08-12T00:23:19;93163.47;;;15.17;73.88
53041;BME280;39326;42.650;23.248;2023-08-12T00:25:45;93160.81;;;15.14;73.75
53041;BME280;39326;42.650;23.248;2023-08-12T00:28:11;93159.28;;;15.13;73.80
53041;BME280;39326;42.650;23.248;2023-08-12T00:30:38;93164.31;;;15.11;73.99
53041;BME280;39326;42.650;23.248;2023-08-12T00:33:04;93155.44;;;15.10;73.63
53041;BME280;39326;42.650;23.248;2023-08-12T00:35:29;93154.72;;;15.06;73.71
53041;BME280;39326;42.650;23.248;2023-08-12T00:37:55;93159.00;;;15.00;74.15
53041;BME280;39326;42.650;23.248;2023-08-12T00:40:21;93159.41;;;14.99;74.09
53041;BME280;39326;42.650;23.248;2023-08-12T00:42:47;93149.00;;;15.01;74.19
53041;BME280;39326;42.650;23.248;2023-08-12T00:45:13;93151.69;;;15.01;74.04
53041;BME280;39326;42.650;23.248;2023-08-12T00:47:39;93149.41;;;14.99;74.28
53041;BME280;39326;42.650;23.248;2023-08-12T00:50:07;93146.34;;;14.97;74.20
53041;BME280;39326;42.650;23.248;2023-08-12T00:52:34;93147.91;;;14.95;74.36
53041;BME280;39326;42.650;23.248;2023-08-12T00:55:00;93154.03;;;14.95;74.10
53041;BME280;39326;42.650;23.248;2023-08-12T00:57:26;93154.84;;;14.92;74.28
53041;BME280;39326;42.650;23.248;2023-08-12T00:59:53;93145.22;;;14.95;74.47
53041;BME280;39326;42.650;23.248;2023-08-12T01:02:21;93143.28;;;14.95;74.24
53041;BME280;39326;42.650;23.248;2023-08-12T01:04:47;93144.47;;;14.90;74.29
53041;BME280;39326;42.650;23.248;2023-08-12T01:07:12;93141.78;;;14.90;74.34
53041;BME280;39326;42.650;23.248;2023-08-12T01:09:38;93149.84;;;14.90;74.23
53041;BME280;39326;42.650;23.248;2023-08-12T01:12:21;93144.09;;;14.88;73.93
53041;BME280;39326;42.650;23.248;2023-08-12T01:15:16;93141.41;;;14.88;73.67
53041;BME280;39326;42.650;23.248;2023-08-12T01:17:44;93133.75;;;14.87;73.63
53041;BME280;39326;42.650;23.248;2023-08-12T01:20:11;93136.81;;;14.85;73.67
53041;BME280;39326;42.650;23.248;2023-08-12T01:22:40;93141.47;;;14.78;73.98
53041;BME280;39326;42.650;23.248;2023-08-12T01:25:07;93140.34;;;14.75;73.93
53041;BME280;39326;42.650;23.248;2023-08-12T01:27:35;93137.66;;;14.75;73.53
53041;BME280;39326;42.650;23.248;2023-08-12T01:30:02;93144.19;;;14.74;73.88
53041;BME280;39326;42.650;23.248;2023-08-12T01:32:53;93141.50;;;14.74;74.18
53041;BME280;39326;42.650;23.248;2023-08-12T01:35:20;93135.03;;;14.68;73.96
53041;BME280;39326;42.650;23.248;2023-08-12T01:37:50;93134.69;;;14.62;74.33
53041;BME280;39326;42.650;23.248;2023-08-12T01:40:19;93136.56;;;14.69;73.44
53041;BME280;39326;42.650;23.248;2023-08-12T01:42:45;93133.09;;;14.69;73.16
53041;BME280;39326;42.650;23.248;2023-08-12T01:45:11;93125.06;;;14.65;73.69
53041;BME280;39326;42.650;23.248;2023-08-12T01:47:37;93126.22;;;14.68;73.27
53041;BME280;39326;42.650;23.248;2023-08-12T01:50:04;93133.91;;;14.62;73.98
53041;BME280;39326;42.650;23.248;2023-08-12T01:52:30;93131.56;;;14.68;73.33
53041;BME280;39326;42.650;23.248;2023-08-12T01:54:56;93127.72;;;14.69;73.37
53041;BME280;39326;42.650;23.248;2023-08-12T01:57:22;93135.81;;;14.65;73.26
53041;BME280;39326;42.650;23.248;2023-08-12T01:59:48;93138.53;;;14.58;73.67
53041;BME280;39326;42.650;23.248;2023-08-12T02:02:13;93135.06;;;14.61;73.35
53041;BME280;39326;42.650;23.248;2023-08-12T02:04:40;93140.06;;;14.59;73.42
53041;BME280;39326;42.650;23.248;2023-08-12T02:07:08;93128.25;;;14.49;73.83
53041;BME280;39326;42.650;23.248;2023-08-12T02:09:34;93147.38;;;14.51;73.75
53041;BME280;39326;42.650;23.248;2023-08-12T02:11:59;93135.88;;;14.51;73.39
53041;BME280;39326;42.650;23.248;2023-08-12T02:14:25;93136.28;;;14.49;73.00
53041;BME280;39326;42.650;23.248;2023-08-12T02:16:51;93135.13;;;14.50;72.90
53041;BME280;39326;42.650;23.248;2023-08-12T02:19:17;93135.88;;;14.51;72.75
53041;BME280;39326;42.650;23.248;2023-08-12T02:21:43;93132.03;;;14.52;72.54
53041;BME280;39326;42.650;23.248;2023-08-12T02:24:08;93129.75;;;14.50;72.20
53041;BME280;39326;42.650;23.248;2023-08-12T02:26:35;93134.72;;;14.52;71.96
53041;BME280;39326;42.650;23.248;2023-08-12T02:29:00;93137.00;;;14.53;71.81
53041;BME280;39326;42.650;23.248;2023-08-12T02:31:26;93136.66;;;14.55;71.03
53041;BME280;39326;42.650;23.248;2023-08-12T02:33:52;93135.88;;;14.51;71.89
53041;BME280;39326;42.650;23.248;2023-08-12T02:36:17;93132.84;;;14.49;71.87
53041;BME280;39326;42.650;23.248;2023-08-12T02:38:43;93131.72;;;14.43;72.10
53041;BME280;39326;42.650;23.248;2023-08-12T02:41:10;93140.91;;;14.49;71.12
53041;BME280;39326;42.650;23.248;2023-08-12T02:43:35;93137.81;;;14.47;71.61
53041;BME280;39326;42.650;23.248;2023-08-12T02:46:01;93137.81;;;14.47;71.24
53041;BME280;39326;42.650;23.248;2023-08-12T02:48:26;93141.31;;;14.44;71.87
53041;BME280;39326;42.650;23.248;2023-08-12T02:50:52;93153.28;;;14.25;72.99
53041;BME280;39326;42.650;23.248;2023-08-12T02:53:18;93148.25;;;14.34;72.21
53041;BME280;39326;42.650;23.248;2023-08-12T02:55:47;93149.41;;;14.33;72.66
53041;BME280;39326;42.650;23.248;2023-08-12T02:58:12;93143.28;;;14.32;72.04
53041;BME280;39326;42.650;23.248;2023-08-12T03:00:41;93145.56;;;14.37;71.36
53041;BME280;39326;42.650;23.248;2023-08-12T03:03:09;93148.63;;;14.36;71.14
53041;BME280;39326;42.650;23.248;2023-08-12T03:05:35;93146.72;;;14.36;71.19
53041;BME280;39326;42.650;23.248;2023-08-12T03:08:01;93149.38;;;14.40;71.35
53041;BME280;39326;42.650;23.248;2023-08-12T03:10:29;93139.03;;;14.38;71.08
53041;BME280;39326;42.650;23.248;2023-08-12T03:12:55;93144.41;;;14.38;71.48
53041;BME280;39326;42.650;23.248;2023-08-12T03:15:21;93148.25;;;14.37;71.68
53041;BME280;39326;42.650;23.248;2023-08-12T03:17:47;93150.56;;;14.35;71.71
53041;BME280;39326;42.650;23.248;2023-08-12T03:20:13;93145.91;;;14.39;71.04
53041;BME280;39326;42.650;23.248;2023-08-12T03:22:39;93149.00;;;14.38;70.99
53041;BME280;39326;42.650;23.248;2023-08-12T03:25:06;93139.03;;;14.38;71.32
53041;BME280;39326;42.650;23.248;2023-08-12T03:27:32;93136.72;;;14.41;71.06
53041;BME280;39326;42.650;23.248;2023-08-12T03:29:57;93148.63;;;14.36;71.59
53041;BME280;39326;42.650;23.248;2023-08-12T03:32:24;93145.56;;;14.37;71.14
53041;BME280;39326;42.650;23.248;2023-08-12T03:34:50;93146.31;;;14.34;71.69
53041;BME280;39326;42.650;23.248;2023-08-12T03:37:16;93149.41;;;14.33;71.88
53041;BME280;39326;42.650;23.248;2023-08-12T03:39:42;93149.00;;;14.34;71.48
53041;BME280;39326;42.650;23.248;2023-08-12T03:42:08;93149.03;;;14.27;71.76
53041;BME280;39326;42.650;23.248;2023-08-12T03:44:34;93148.66;;;14.29;71.72
53041;BME280;39326;42.650;23.248;2023-08-12T03:46:59;93144.47;;;14.24;72.29
53041;BME280;39326;42.650;23.248;2023-08-12T03:49:25;93154.44;;;14.20;72.56
53041;BME280;39326;42.650;23.248;2023-08-12T03:51:51;93155.16;;;14.28;72.03
53041;BME280;39326;42.650;23.248;2023-08-12T03:54:17;93155.56;;;14.30;72.09
53041;BME280;39326;42.650;23.248;2023-08-12T03:56:43;93154.41;;;14.31;72.05
53041;BME280;39326;42.650;23.248;2023-08-12T03:59:10;93150.16;;;14.37;72.18
53041;BME280;39326;42.650;23.248;2023-08-12T04:01:37;93150.13;;;14.41;71.99
53041;BME280;39326;42.650;23.248;2023-08-12T04:04:03;93159.31;;;14.43;72.11
53041;BME280;39326;42.650;23.248;2023-08-12T04:06:28;93153.53;;;14.52;71.56
53041;BME280;39326;42.650;23.248;2023-08-12T04:08:54;93150.03;;;14.58;71.72
53041;BME280;39326;42.650;23.248;2023-08-12T04:11:20;93155.78;;;14.57;72.38
53041;BME280;39326;42.650;23.248;2023-08-12T04:13:46;93154.19;;;14.66;72.57
53041;BME280;39326;42.650;23.248;2023-08-12T04:16:12;93158.78;;;14.73;71.77
53041;BME280;39326;42.650;23.248;2023-08-12T04:18:38;93153.38;;;14.77;70.95
53041;BME280;39326;42.650;23.248;2023-08-12T04:21:04;93154.81;;;14.88;69.81
53041;BME280;39326;42.650;23.248;2023-08-12T04:23:30;93152.47;;;14.98;69.89
53041;BME280;39326;42.650;23.248;2023-08-12T04:25:56;93156.28;;;15.04;69.17
53041;BME280;39326;42.650;23.248;2023-08-12T04:28:23;93156.25;;;15.07;69.66
53041;BME280;39326;42.650;23.248;2023-08-12T04:30:49;93156.25;;;15.07;69.48
53041;BME280;39326;42.650;23.248;2023-08-12T04:33:18;93160.41;;;15.15;68.87
53041;BME280;39326;42.650;23.248;2023-08-12T04:35:45;93157.69;;;15.19;68.54
53041;BME280;39326;42.650;23.248;2023-08-12T04:38:11;93161.44;;;15.29;68.26
53041;BME280;39326;42.650;23.248;2023-08-12T04:40:40;93160.59;;;15.42;66.80
53041;BME280;39326;42.650;23.248;2023-08-12T04:43:07;93160.50;;;15.50;66.49
53041;BME280;39326;42.650;23.248;2023-08-12T04:45:34;93158.53;;;15.54;66.89
53041;BME280;39326;42.650;23.248;2023-08-12T04:48:00;93154.25;;;15.60;66.60
53041;BME280;39326;42.650;23.248;2023-08-12T04:50:29;93161.91;;;15.65;66.11
53041;BME280;39326;42.650;23.248;2023-08-12T04:52:55;93158.00;;;15.69;65.86
53041;BME280;39326;42.650;23.248;2023-08-12T04:55:20;93154.56;;;15.69;65.90
53041;BME280;39326;42.650;23.248;2023-08-12T04:57:46;93156.19;;;15.59;65.32
53041;BME280;39326;42.650;23.248;2023-08-12T05:00:12;93158.41;;;15.68;65.25
53041;BME280;39326;42.650;23.248;2023-08-12T05:02:38;93154.91;;;15.75;64.96
53041;BME280;39326;42.650;23.248;2023-08-12T05:05:04;93163.66;;;15.82;65.05
53041;BME280;39326;42.650;23.248;2023-08-12T05:07:30;93165.59;;;15.78;64.39
53041;BME280;39326;42.650;23.248;2023-08-12T05:09:56;93159.50;;;15.74;63.67
53041;BME280;39326;42.650;23.248;2023-08-12T05:12:22;93166.75;;;15.81;64.45
53041;BME280;39326;42.650;23.248;2023-08-12T05:14:48;93165.84;;;15.94;64.17
53041;BME280;39326;42.650;23.248;2023-08-12T05:17:13;93171.56;;;16.00;63.60
53041;BME280;39326;42.650;23.248;2023-08-12T05:19:39;93165.34;;;16.07;63.66
53041;BME280;39326;42.650;23.248;2023-08-12T05:22:04;93166.03;;;16.11;64.02
53041;BME280;39326;42.650;23.248;2023-08-12T05:24:30;93167.59;;;16.12;62.88
53041;BME280;39326;42.650;23.248;2023-08-12T05:26:56;93164.06;;;16.18;63.10
53041;BME280;39326;42.650;23.248;2023-08-12T05:29:22;93178.88;;;16.30;63.27
53041;BME280;39326;42.650;23.248;2023-08-12T05:31:48;93171.94;;;16.33;63.52
53041;BME280;39326;42.650;23.248;2023-08-12T05:34:13;93178.34;;;16.42;64.16
53041;BME280;39326;42.650;23.248;2023-08-12T05:36:39;93176.75;;;16.48;63.21
53041;BME280;39326;42.650;23.248;2023-08-12T05:39:04;93178.56;;;16.55;63.20
53041;BME280;39326;42.650;23.248;2023-08-12T05:41:30;93175.75;;;16.66;63.60
53041;BME280;39326;42.650;23.248;2023-08-12T05:43:55;93186.75;;;16.78;63.53
53041;BME280;39326;42.650;23.248;2023-08-12T05:46:21;93183.88;;;16.93;62.75
53041;BME280;39326;42.650;23.248;2023-08-12T05:48:47;93184.66;;;16.93;62.06
53041;BME280;39326;42.650;23.248;2023-08-12T05:51:12;93177.63;;;16.99;60.20
53041;BME280;39326;42.650;23.248;2023-08-12T05:53:38;93177.53;;;17.06;59.92
53041;BME280;39326;42.650;23.248;2023-08-12T05:56:04;93184.44;;;17.08;60.52
53041;BME280;39326;42.650;23.248;2023-08-12T05:58:30;93177.22;;;17.01;60.46
53041;BME280;39326;42.650;23.248;2023-08-12T06:00:55;93174.41;;;17.08;60.12
53041;BME280;39326;42.650;23.248;2023-08-12T06:03:21;93173.13;;;17.16;60.03
53041;BME280;39326;42.650;23.248;2023-08-12T06:05:46;93168.47;;;17.20;59.12
53041;BME280;39326;42.650;23.248;2023-08-12T06:08:13;93164.81;;;17.30;58.91
53041;BME280;39326;42.650;23.248;2023-08-12T06:10:38;93165.00;;;17.43;58.96
53041;BME280;39326;42.650;23.248;2023-08-12T06:13:04;93160.66;;;17.49;59.54
53041;BME280;39326;42.650;23.248;2023-08-12T06:15:30;93161.66;;;17.59;59.18
53041;BME280;39326;42.650;23.248;2023-08-12T06:17:56;93158.97;;;17.59;59.36
53041;BME280;39326;42.650;23.248;2023-08-12T06:20:24;93161.09;;;17.68;58.59
53041;BME280;39326;42.650;23.248;2023-08-12T06:22:51;93165.63;;;17.74;58.70
53041;BME280;39326;42.650;23.248;2023-08-12T06:25:18;93158.88;;;17.86;58.54
53041;BME280;39326;42.650;23.248;2023-08-12T06:27:44;93160.22;;;17.98;58.31
53041;BME280;39326;42.650;23.248;2023-08-12T06:30:11;93164.28;;;18.06;57.94
53041;BME280;39326;42.650;23.248;2023-08-12T06:32:37;93158.69;;;18.17;57.74
53041;BME280;39326;42.650;23.248;2023-08-12T06:35:03;93155.84;;;18.24;57.06
53041;BME280;39326;42.650;23.248;2023-08-12T06:37:28;93152.63;;;18.32;56.71
53041;BME280;39326;42.650;23.248;2023-08-12T06:39:54;93151.34;;;18.37;56.22
53041;BME280;39326;42.650;23.248;2023-08-12T06:42:21;93153.56;;;18.42;55.84
53041;BME280;39326;42.650;23.248;2023-08-12T06:44:57;93150.31;;;18.51;56.40
53041;BME280;39326;42.650;23.248;2023-08-12T06:47:23;93148.72;;;18.53;56.73
53041;BME280;39326;42.650;23.248;2023-08-12T06:49:49;93144.63;;;18.65;56.32
53041;BME280;39326;42.650;23.248;2023-08-12T06:52:15;93146.69;;;18.77;56.20
53041;BME280;39326;42.650;23.248;2023-08-12T06:54:41;93139.94;;;18.85;55.64
53041;BME280;39326;42.650;23.248;2023-08-12T06:57:07;93150.41;;;19.00;54.96
53041;BME280;39326;42.650;23.248;2023-08-12T07:01:58;93141.03;;;19.04;55.54
53041;BME280;39326;42.650;23.248;2023-08-12T07:04:23;93143.00;;;19.20;55.23
53041;BME280;39326;42.650;23.248;2023-08-12T07:06:49;93150.25;;;19.23;55.42
53041;BME280;39326;42.650;23.248;2023-08-12T07:09:16;93144.28;;;19.15;55.12
53041;BME280;39326;42.650;23.248;2023-08-12T07:11:42;93144.25;;;19.32;55.65
53041;BME280;39326;42.650;23.248;2023-08-12T07:14:07;93147.47;;;19.43;54.56
53041;BME280;39326;42.650;23.248;2023-08-12T07:16:33;93144.44;;;19.41;54.35
53041;BME280;39326;42.650;23.248;2023-08-12T07:18:58;93143.09;;;19.33;55.45
53041;BME280;39326;42.650;23.248;2023-08-12T07:21:24;93145.63;;;19.40;55.40
53041;BME280;39326;42.650;23.248;2023-08-12T07:23:50;93144.16;;;19.68;54.64
53041;BME280;39326;42.650;23.248;2023-08-12T07:26:16;93142.22;;;19.68;54.42
53041;BME280;39326;42.650;23.248;2023-08-12T07:28:41;93145.78;;;19.94;53.42
53041;BME280;39326;42.650;23.248;2023-08-12T07:31:07;93147.34;;;19.95;53.74
53041;BME280;39326;42.650;23.248;2023-08-12T07:33:32;93142.28;;;20.10;53.79
53041;BME280;39326;42.650;23.248;2023-08-12T07:35:58;93151.13;;;20.27;52.42
53041;BME280;39326;42.650;23.248;2023-08-12T07:38:24;93136.69;;;20.17;52.09
53041;BME280;39326;42.650;23.248;2023-08-12T07:40:50;93141.34;;;20.46;51.10
53041;BME280;39326;42.650;23.248;2023-08-12T07:43:16;93135.38;;;20.64;50.84
53041;BME280;39326;42.650;23.248;2023-08-12T07:45:42;93142.22;;;20.81;50.71
53041;BME280;39326;42.650;23.248;2023-08-12T07:48:07;93135.59;;;20.69;50.46
53041;BME280;39326;42.650;23.248;2023-08-12T07:50:32;93137.47;;;20.72;50.95
53041;BME280;39326;42.650;23.248;2023-08-12T07:52:58;93140.16;;;20.60;50.40
53041;BME280;39326;42.650;23.248;2023-08-12T07:55:23;93136.94;;;20.90;49.72
53041;BME280;39326;42.650;23.248;2023-08-12T07:57:49;93129.34;;;21.11;48.76
53041;BME280;39326;42.650;23.248;2023-08-12T08:00:15;93128.56;;;20.97;49.36
53041;BME280;39326;42.650;23.248;2023-08-12T08:02:41;93130.97;;;21.33;48.12
53041;BME280;39326;42.650;23.248;2023-08-12T08:05:07;93132.28;;;21.29;49.15
53041;BME280;39326;42.650;23.248;2023-08-12T08:07:32;93132.81;;;21.24;47.93
53041;BME280;39326;42.650;23.248;2023-08-12T08:09:58;93127.69;;;21.39;47.55
53041;BME280;39326;42.650;23.248;2023-08-12T08:12:24;93119.53;;;21.39;48.06
53041;BME280;39326;42.650;23.248;2023-08-12T08:14:50;93126.06;;;21.41;48.35
53041;BME280;39326;42.650;23.248;2023-08-12T08:17:16;93119.22;;;21.37;48.34
53041;BME280;39326;42.650;23.248;2023-08-12T08:19:42;93126.00;;;21.67;48.16
53041;BME280;39326;42.650;23.248;2023-08-12T08:22:07;93125.38;;;21.97;47.48
53041;BME280;39326;42.650;23.248;2023-08-12T08:24:33;93125.84;;;21.70;46.96
53041;BME280;39326;42.650;23.248;2023-08-12T08:26:58;93127.91;;;21.92;47.51
53041;BME280;39326;42.650;23.248;2023-08-12T08:29:24;93117.66;;;22.18;47.03
53041;BME280;39326;42.650;23.248;2023-08-12T08:31:50;93126.25;;;22.38;47.26
53041;BME280;39326;42.650;23.248;2023-08-12T08:34:15;93114.13;;;22.08;45.85
53041;BME280;39326;42.650;23.248;2023-08-12T08:36:41;93118.75;;;22.42;45.81
53041;BME280;39326;42.650;23.248;2023-08-12T08:39:08;93115.44;;;22.69;45.26
53041;BME280;39326;42.650;23.248;2023-08-12T08:41:38;93116.22;;;23.10;44.07
53041;BME280;39326;42.650;23.248;2023-08-12T08:44:06;93114.38;;;23.07;43.96
53041;BME280;39326;42.650;23.248;2023-08-12T08:46:32;93114.72;;;23.18;43.39
53041;BME280;39326;42.650;23.248;2023-08-12T08:48:59;93108.81;;;23.10;43.59
53041;BME280;39326;42.650;23.248;2023-08-12T08:51:26;93108.09;;;22.79;43.70
53041;BME280;39326;42.650;23.248;2023-08-12T08:53:54;93106.97;;;23.07;43.31
53041;BME280;39326;42.650;23.248;2023-08-12T08:56:21;93109.41;;;23.14;43.82
53041;BME280;39326;42.650;23.248;2023-08-12T08:58:47;93108.97;;;23.16;44.01
53041;BME280;39326;42.650;23.248;2023-08-12T09:01:13;93112.44;;;23.16;43.89
53041;BME280;39326;42.650;23.248;2023-08-12T09:03:40;93107.88;;;23.54;42.94
53041;BME280;39326;42.650;23.248;2023-08-12T09:06:06;93102.91;;;23.80;41.62
53041;BME280;39326;42.650;23.248;2023-08-12T09:08:32;93089.56;;;23.82;41.61
53041;BME280;39326;42.650;23.248;2023-08-12T09:10:59;93093.03;;;23.64;42.34
53041;BME280;39326;42.650;23.248;2023-08-12T09:13:27;93103.06;;;23.85;42.09
53041;BME280;39326;42.650;23.248;2023-08-12T09:15:53;93108.34;;;23.89;41.98
53041;BME280;39326;42.650;23.248;2023-08-12T09:18:19;93098.66;;;23.79;41.72
53041;BME280;39326;42.650;23.248;2023-08-12T09:20:52;93093.66;;;23.86;41.67
53041;BME280;39326;42.650;23.248;2023-08-12T09:23:18;93091.84;;;24.29;41.59
53041;BME280;39326;42.650;23.248;2023-08-12T09:25:44;93088.94;;;24.60;39.93
53041;BME280;39326;42.650;23.248;2023-08-12T09:28:11;93085.22;;;24.72;39.66
53041;BME280;39326;42.650;23.248;2023-08-12T09:30:37;93078.44;;;24.59;40.25
53041;BME280;39326;42.650;23.248;2023-08-12T09:33:04;93080.41;;;24.58;40.16
53041;BME280;39326;42.650;23.248;2023-08-12T09:35:41;93076.03;;;24.51;39.46
53041;BME280;39326;42.650;23.248;2023-08-12T09:38:11;93073.69;;;24.77;39.63
53041;BME280;39326;42.650;23.248;2023-08-12T09:40:37;93068.50;;;24.89;40.33
53041;BME280;39326;42.650;23.248;2023-08-12T09:43:03;93070.19;;;24.86;39.33
53041;BME280;39326;42.650;23.248;2023-08-12T09:45:30;93071.72;;;24.78;39.43
53041;BME280;39326;42.650;23.248;2023-08-12T09:47:56;93072.81;;;24.71;38.94
53041;BME280;39326;42.650;23.248;2023-08-12T09:50:23;93063.41;;;24.72;39.10
53041;BME280;39326;42.650;23.248;2023-08-12T09:52:51;93066.38;;;24.83;39.57
53041;BME280;39326;42.650;23.248;2023-08-12T09:55:18;93068.03;;;25.23;38.61
53041;BME280;39326;42.650;23.248;2023-08-12T09:57:55;93061.47;;;25.54;38.32
53041;BME280;39326;42.650;23.248;2023-08-12T10:00:23;93064.88;;;25.49;37.74
53041;BME280;39326;42.650;23.248;2023-08-12T10:02:50;93061.09;;;25.85;38.06
53041;BME280;39326;42.650;23.248;2023-08-12T10:05:25;93050.41;;;25.72;36.50
53041;BME280;39326;42.650;23.248;2023-08-12T10:07:53;93047.22;;;25.74;37.53
53041;BME280;39326;42.650;23.248;2023-08-12T10:10:20;93055.94;;;25.87;37.74
53041;BME280;39326;42.650;23.248;2023-08-12T10:12:46;93047.88;;;25.93;37.21
53041;BME280;39326;42.650;23.248;2023-08-12T10:15:12;93043.44;;;25.95;36.59
53041;BME280;39326;42.650;23.248;2023-08-12T10:17:40;93040.69;;;26.10;37.25
53041;BME280;39326;42.650;23.248;2023-08-12T10:20:07;93040.16;;;26.06;36.57
53041;BME280;39326;42.650;23.248;2023-08-12T10:22:35;93047.72;;;25.87;37.10
53041;BME280;39326;42.650;23.248;2023-08-12T10:25:02;93037.31;;;26.00;35.90
53041;BME280;39326;42.650;23.248;2023-08-12T10:27:29;93039.56;;;26.16;36.48
53041;BME280;39326;42.650;23.248;2023-08-12T10:29:58;93039.13;;;26.18;34.77
53041;BME280;39326;42.650;23.248;2023-08-12T10:32:24;93034.50;;;26.24;35.49
53041;BME280;39326;42.650;23.248;2023-08-12T10:34:59;93032.59;;;26.45;35.40
53041;BME280;39326;42.650;23.248;2023-08-12T10:37:25;93035.56;;;26.56;36.01
53041;BME280;39326;42.650;23.248;2023-08-12T10:39:54;93026.59;;;26.91;35.91
53041;BME280;39326;42.650;23.248;2023-08-12T10:42:42;93023.91;;;26.47;35.60
53041;BME280;39326;42.650;23.248;2023-08-12T10:45:09;93020.25;;;26.05;34.77
53041;BME280;39326;42.650;23.248;2023-08-12T10:47:43;93027.72;;;26.64;36.11
53041;BME280;39326;42.650;23.248;2023-08-12T10:50:20;93023.25;;;26.81;35.95
53041;BME280;39326;42.650;23.248;2023-08-12T10:52:46;93023.97;;;27.32;34.96
53041;BME280;39326;42.650;23.248;2023-08-12T10:55:23;93009.22;;;27.29;34.77
53041;BME280;39326;42.650;23.248;2023-08-12T10:57:50;93013.81;;;27.58;34.87
53041;BME280;39326;42.650;23.248;2023-08-12T11:00:22;93017.56;;;27.61;34.45
53041;BME280;39326;42.650;23.248;2023-08-12T11:02:56;93010.59;;;27.80;33.98
53041;BME280;39326;42.650;23.248;2023-08-12T11:05:22;93008.84;;;28.03;34.14
53041;BME280;39326;42.650;23.248;2023-08-12T11:07:57;92998.56;;;27.98;32.65
53041;BME280;39326;42.650;23.248;2023-08-12T11:10:30;92999.66;;;28.06;33.33
53041;BME280;39326;42.650;23.248;2023-08-12T11:12:57;93000.78;;;28.20;33.16
53041;BME280;39326;42.650;23.248;2023-08-12T11:17:54;92994.69;;;28.10;32.87
53041;BME280;39326;42.650;23.248;2023-08-12T11:20:21;92994.53;;;28.19;33.03
53041;BME280;39326;42.650;23.248;2023-08-12T11:22:47;92995.72;;;28.13;32.64
53041;BME280;39326;42.650;23.248;2023-08-12T11:25:13;92995.28;;;28.20;32.56
53041;BME280;39326;42.650;23.248;2023-08-12T11:27:47;92992.69;;;28.11;31.88
53041;BME280;39326;42.650;23.248;2023-08-12T11:30:15;92990.38;;;28.29;31.79
53041;BME280;39326;42.650;23.248;2023-08-12T11:32:43;92978.38;;;28.27;31.15
53041;BME280;39326;42.650;23.248;2023-08-12T11:35:09;92990.00;;;28.42;31.10
53041;BME280;39326;42.650;23.248;2023-08-12T11:37:40;92987.44;;;28.33;31.49
53041;BME280;39326;42.650;23.248;2023-08-12T11:40:07;92992.88;;;28.01;31.92
53041;BME280;39326;42.650;23.248;2023-08-12T11:42:35;92987.56;;;28.18;31.81
53041;BME280;39326;42.650;23.248;2023-08-12T11:45:01;92978.72;;;28.09;31.78
53041;BME280;39326;42.650;23.248;2023-08-12T11:47:27;92974.88;;;28.26;31.85
53041;BME280;39326;42.650;23.248;2023-08-12T11:49:53;92981.31;;;28.49;31.60
53041;BME280;39326;42.650;23.248;2023-08-12T11:52:20;92982.84;;;28.50;31.23
53041;BME280;39326;42.650;23.248;2023-08-12T11:54:46;92981.38;;;28.55;31.72
53041;BME280;39326;42.650;23.248;2023-08-12T11:57:11;92983.59;;;27.73;31.38
53041;BME280;39326;42.650;23.248;2023-08-12T11:59:37;92985.72;;;27.22;31.84
53041;BME280;39326;42.650;23.248;2023-08-12T12:02:03;92981.19;;;26.99;31.86
53041;BME280;39326;42.650;23.248;2023-08-12T12:04:32;92975.81;;;27.25;32.08
53041;BME280;39326;42.650;23.248;2023-08-12T12:06:58;92974.03;;;27.22;31.93
53041;BME280;39326;42.650;23.248;2023-08-12T12:09:25;92971.94;;;27.58;30.68
53041;BME280;39326;42.650;23.248;2023-08-12T12:11:52;92965.13;;;27.94;30.89
53041;BME280;39326;42.650;23.248;2023-08-12T12:14:20;92965.13;;;27.94;29.92
53041;BME280;39326;42.650;23.248;2023-08-12T12:16:47;92971.03;;;27.87;30.45
53041;BME280;39326;42.650;23.248;2023-08-12T12:19:23;92969.28;;;27.63;31.03
53041;BME280;39326;42.650;23.248;2023-08-12T12:21:52;92971.50;;;27.04;30.37
53041;BME280;39326;42.650;23.248;2023-08-12T12:24:19;92962.47;;;26.77;30.93
53041;BME280;39326;42.650;23.248;2023-08-12T12:26:45;92966.97;;;26.15;31.96
53041;BME280;39326;42.650;23.248;2023-08-12T12:29:14;92979.53;;;25.93;32.98
53041;BME280;39326;42.650;23.248;2023-08-12T12:31:41;92962.84;;;26.05;33.97
53041;BME280;39326;42.650;23.248;2023-08-12T12:34:07;92967.69;;;26.60;34.06
53041;BME280;39326;42.650;23.248;2023-08-12T12:36:36;92961.53;;;26.65;34.45
53041;BME280;39326;42.650;23.248;2023-08-12T12:39:05;92959.22;;;26.29;34.55
53041;BME280;39326;42.650;23.248;2023-08-12T12:41:31;92960.72;;;26.59;34.15
53041;BME280;39326;42.650;23.248;2023-08-12T12:43:59;92955.81;;;26.84;34.09
53041;BME280;39326;42.650;23.248;2023-08-12T12:46:25;92960.28;;;27.37;33.77
53041;BME280;39326;42.650;23.248;2023-08-12T12:48:50;92953.34;;;27.88;32.77
53041;BME280;39326;42.650;23.248;2023-08-12T12:51:16;92948.50;;;27.77;32.58
53041;BME280;39326;42.650;23.248;2023-08-12T12:53:41;92948.47;;;27.51;33.41